sensor_id;sensor_type;location;lat;lon;timestamp;temperature;humidity
55785;DHT22;41709;52.536;5.688;2023-04-15T00:01:28;7.90;73.40
55785;DHT22;41709;52.536;5.688;2023-04-15T00:03:54;7.90;73.40
55785;DHT22;41709;52.536;5.688;2023-04-15T00:06:21;7.90;73.60
55785;DHT22;41709;52.536;5.688;2023-04-15T00:08:47;7.90;73.70
55785;DHT22;41709;52.536;5.688;2023-04-15T00:11:13;7.90;73.70
55785;DHT22;41709;52.536;5.688;2023-04-15T00:13:39;7.90;73.70
55785;DHT22;41709;52.536;5.688;2023-04-15T00:16:06;7.90;73.70
55785;DHT22;41709;52.536;5.688;2023-04-15T00:18:32;7.80;73.90
55785;DHT22;41709;52.536;5.688;2023-04-15T00:20:58;7.80;74.00
55785;DHT22;41709;52.536;5.688;2023-04-15T00:23:24;7.80;74.10
55785;DHT22;41709;52.536;5.688;2023-04-15T00:25:49;7.80;74.30
55785;DHT22;41709;52.536;5.688;2023-04-15T00:28:15;7.80;74.40
55785;DHT22;41709;52.536;5.688;2023-04-15T00:30:41;7.80;74.60
55785;DHT22;41709;52.536;5.688;2023-04-15T00:33:07;7.70;74.60
55785;DHT22;41709;52.536;5.688;2023-04-15T00:35:33;7.70;74.80
55785;DHT22;41709;52.536;5.688;2023-04-15T00:37:59;7.60;75.00
55785;DHT22;41709;52.536;5.688;2023-04-15T00:40:25;7.60;75.20
55785;DHT22;41709;52.536;5.688;2023-04-15T00:42:51;7.60;75.40
55785;DHT22;41709;52.536;5.688;2023-04-15T00:45:16;7.50;75.60
55785;DHT22;41709;52.536;5.688;2023-04-15T00:47:43;7.50;75.80
55785;DHT22;41709;52.536;5.688;2023-04-15T00:50:10;7.40;76.00
55785;DHT22;41709;52.536;5.688;2023-04-15T00:52:37;7.40;76.10
55785;DHT22;41709;52.536;5.688;2023-04-15T00:55:02;7.40;76.20
55785;DHT22;41709;52.536;5.688;2023-04-15T00:57:29;7.40;76.40
55785;DHT22;41709;52.536;5.688;2023-04-15T00:59:55;7.30;76.50
55785;DHT22;41709;52.536;5.688;2023-04-15T01:02:21;7.30;76.50
55785;DHT22;41709;52.536;5.688;2023-04-15T01:04:47;7.30;76.60
55785;DHT22;41709;52.536;5.688;2023-04-15T01:07:13;7.30;76.60
55785;DHT22;41709;52.536;5.688;2023-04-15T01:09:39;7.30;76.90
55785;DHT22;41709;52.536;5.688;2023-04-15T01:12:06;7.30;76.90
55785;DHT22;41709;52.536;5.688;2023-04-15T01:14:33;7.30;77.00
55785;DHT22;41709;52.536;5.688;2023-04-15T01:16:58;7.30;77.00
55785;DHT22;41709;52.536;5.688;2023-04-15T01:19:24;7.30;77.00
55785;DHT22;41709;52.536;5.688;2023-04-15T01:21:49;7.30;76.80
55785;DHT22;41709;52.536;5.688;2023-04-15T01:24:17;7.30;76.70
55785;DHT22;41709;52.536;5.688;2023-04-15T01:26:43;7.30;76.90
55785;DHT22;41709;52.536;5.688;2023-04-15T01:29:09;7.30;77.00
55785;DHT22;41709;52.536;5.688;2023-04-15T01:31:35;7.30;77.00
55785;DHT22;41709;52.536;5.688;2023-04-15T01:34:00;7.30;77.00
55785;DHT22;41709;52.536;5.688;2023-04-15T01:36:26;7.30;77.00
55785;DHT22;41709;52.536;5.688;2023-04-15T01:38:52;7.30;77.00
55785;DHT22;41709;52.536;5.688;2023-04-15T01:41:25;7.30;77.20
55785;DHT22;41709;52.536;5.688;2023-04-15T01:43:51;7.30;77.10
55785;DHT22;41709;52.536;5.688;2023-04-15T01:46:16;7.30;77.00
55785;DHT22;41709;52.536;5.688;2023-04-15T01:48:42;7.30;77.20
55785;DHT22;41709;52.536;5.688;2023-04-15T01:51:08;7.20;77.20
55785;DHT22;41709;52.536;5.688;2023-04-15T01:53:33;7.20;77.40
55785;DHT22;41709;52.536;5.688;2023-04-15T01:55:59;7.20;78.10
55785;DHT22;41709;52.536;5.688;2023-04-15T01:58:24;7.20;77.60
55785;DHT22;41709;52.536;5.688;2023-04-15T02:00:50;7.10;77.70
55785;DHT22;41709;52.536;5.688;2023-04-15T02:03:16;7.10;78.70
55785;DHT22;41709;52.536;5.688;2023-04-15T02:05:42;7.10;78.20
55785;DHT22;41709;52.536;5.688;2023-04-15T02:08:08;7.00;78.30
55785;DHT22;41709;52.536;5.688;2023-04-15T02:10:33;7.00;78.40
55785;DHT22;41709;52.536;5.688;2023-04-15T02:12:59;7.00;78.60
55785;DHT22;41709;52.536;5.688;2023-04-15T02:15:25;6.90;78.70
55785;DHT22;41709;52.536;5.688;2023-04-15T02:17:50;6.90;78.80
55785;DHT22;41709;52.536;5.688;2023-04-15T02:20:20;6.90;79.00
55785;DHT22;41709;52.536;5.688;2023-04-15T02:22:46;6.90;79.10
55785;DHT22;41709;52.536;5.688;2023-04-15T02:25:13;6.80;79.20
55785;DHT22;41709;52.536;5.688;2023-04-15T02:27:39;6.80;79.60
55785;DHT22;41709;52.536;5.688;2023-04-15T02:30:05;6.80;79.80
55785;DHT22;41709;52.536;5.688;2023-04-15T02:32:33;6.70;79.90
55785;DHT22;41709;52.536;5.688;2023-04-15T02:35:06;6.70;80.10
55785;DHT22;41709;52.536;5.688;2023-04-15T02:37:35;6.70;80.20
55785;DHT22;41709;52.536;5.688;2023-04-15T02:40:09;6.70;80.30
55785;DHT22;41709;52.536;5.688;2023-04-15T02:42:41;6.60;80.40
55785;DHT22;41709;52.536;5.688;2023-04-15T02:45:07;6.60;80.50
55785;DHT22;41709;52.536;5.688;2023-04-15T02:47:34;6.60;80.60
55785;DHT22;41709;52.536;5.688;2023-04-15T02:50:03;6.50;80.80
55785;DHT22;41709;52.536;5.688;2023-04-15T02:52:28;6.50;81.10
55785;DHT22;41709;52.536;5.688;2023-04-15T02:54:54;6.40;81.70
55785;DHT22;41709;52.536;5.688;2023-04-15T02:57:27;6.30;82.40
55785;DHT22;41709;52.536;5.688;2023-04-15T02:59:53;6.20;83.00
55785;DHT22;41709;52.536;5.688;2023-04-15T03:02:19;6.10;83.30
55785;DHT22;41709;52.536;5.688;2023-04-15T03:04:45;6.10;83.40
55785;DHT22;41709;52.536;5.688;2023-04-15T03:07:10;6.10;83.50
55785;DHT22;41709;52.536;5.688;2023-04-15T03:09:36;6.10;83.60
55785;DHT22;41709;52.536;5.688;2023-04-15T03:12:04;6.10;83.70
55785;DHT22;41709;52.536;5.688;2023-04-15T03:14:29;6.10;83.80
55785;DHT22;41709;52.536;5.688;2023-04-15T03:16:55;6.10;83.80
55785;DHT22;41709;52.536;5.688;2023-04-15T03:19:20;6.10;83.90
55785;DHT22;41709;52.536;5.688;2023-04-15T03:21:46;6.10;84.00
55785;DHT22;41709;52.536;5.688;2023-04-15T03:24:12;6.10;84.30
55785;DHT22;41709;52.536;5.688;2023-04-15T03:26:37;6.00;84.70
55785;DHT22;41709;52.536;5.688;2023-04-15T03:29:03;5.90;85.10
55785;DHT22;41709;52.536;5.688;2023-04-15T03:31:28;5.90;85.30
55785;DHT22;41709;52.536;5.688;2023-04-15T03:33:54;5.90;85.60
55785;DHT22;41709;52.536;5.688;2023-04-15T03:36:19;5.80;85.90
55785;DHT22;41709;52.536;5.688;2023-04-15T03:38:45;5.80;86.10
55785;DHT22;41709;52.536;5.688;2023-04-15T03:41:11;5.80;86.50
55785;DHT22;41709;52.536;5.688;2023-04-15T03:43:36;5.70;86.70
55785;DHT22;41709;52.536;5.688;2023-04-15T03:46:02;5.70;87.00
55785;DHT22;41709;52.536;5.688;2023-04-15T03:48:27;5.60;87.20
55785;DHT22;41709;52.536;5.688;2023-04-15T03:50:53;5.70;87.50
55785;DHT22;41709;52.536;5.688;2023-04-15T03:53:20;5.60;87.80
55785;DHT22;41709;52.536;5.688;2023-04-15T03:55:45;5.50;88.40
55785;DHT22;41709;52.536;5.688;2023-04-15T03:58:11;5.50;88.60
55785;DHT22;41709;52.536;5.688;2023-04-15T04:00:38;5.40;89.00
55785;DHT22;41709;52.536;5.688;2023-04-15T04:03:03;5.40;89.50
55785;DHT22;41709;52.536;5.688;2023-04-15T04:05:29;5.40;89.80
55785;DHT22;41709;52.536;5.688;2023-04-15T04:07:55;5.40;89.90
55785;DHT22;41709;52.536;5.688;2023-04-15T04:10:20;5.30;90.10
55785;DHT22;41709;52.536;5.688;2023-04-15T04:12:46;5.30;90.30
55785;DHT22;41709;52.536;5.688;2023-04-15T04:15:12;5.30;90.40
55785;DHT22;41709;52.536;5.688;2023-04-15T04:17:37;5.30;90.50
55785;DHT22;41709;52.536;5.688;2023-04-15T04:20:03;5.30;90.60
55785;DHT22;41709;52.536;5.688;2023-04-15T04:22:30;5.40;90.60
55785;DHT22;41709;52.536;5.688;2023-04-15T04:24:55;5.40;90.70
55785;DHT22;41709;52.536;5.688;2023-04-15T04:27:21;5.30;90.70
55785;DHT22;41709;52.536;5.688;2023-04-15T04:29:46;5.30;90.90
55785;DHT22;41709;52.536;5.688;2023-04-15T04:32:14;5.30;90.90
55785;DHT22;41709;52.536;5.688;2023-04-15T04:34:39;5.30;90.90
55785;DHT22;41709;52.536;5.688;2023-04-15T04:37:05;5.40;90.90
55785;DHT22;41709;52.536;5.688;2023-04-15T04:39:31;5.40;90.70
55785;DHT22;41709;52.536;5.688;2023-04-15T04:41:57;5.40;90.70
55785;DHT22;41709;52.536;5.688;2023-04-15T04:44:22;5.40;90.80
55785;DHT22;41709;52.536;5.688;2023-04-15T04:46:48;5.30;90.90
55785;DHT22;41709;52.536;5.688;2023-04-15T04:49:13;5.30;90.90
55785;DHT22;41709;52.536;5.688;2023-04-15T04:51:39;5.30;90.90
55785;DHT22;41709;52.536;5.688;2023-04-15T04:54:04;5.40;90.90
55785;DHT22;41709;52.536;5.688;2023-04-15T04:56:30;5.40;90.90
55785;DHT22;41709;52.536;5.688;2023-04-15T04:58:55;5.40;90.90
55785;DHT22;41709;52.536;5.688;2023-04-15T05:01:21;5.40;90.90
55785;DHT22;41709;52.536;5.688;2023-04-15T05:03:46;5.40;90.80
55785;DHT22;41709;52.536;5.688;2023-04-15T05:06:12;5.40;90.90
55785;DHT22;41709;52.536;5.688;2023-04-15T05:08:37;5.40;90.80
55785;DHT22;41709;52.536;5.688;2023-04-15T05:11:04;5.40;90.90
55785;DHT22;41709;52.536;5.688;2023-04-15T05:13:30;5.40;90.90
55785;DHT22;41709;52.536;5.688;2023-04-15T05:15:56;5.40;90.90
55785;DHT22;41709;52.536;5.688;2023-04-15T05:18:21;5.40;91.00
55785;DHT22;41709;52.536;5.688;2023-04-15T05:20:47;5.40;91.10
55785;DHT22;41709;52.536;5.688;2023-04-15T05:23:14;5.40;91.30
55785;DHT22;41709;52.536;5.688;2023-04-15T05:25:40;5.40;91.40
55785;DHT22;41709;52.536;5.688;2023-04-15T05:28:05;5.40;91.50
55785;DHT22;41709;52.536;5.688;2023-04-15T05:30:31;5.40;91.50
55785;DHT22;41709;52.536;5.688;2023-04-15T05:32:56;5.50;91.50
55785;DHT22;41709;52.536;5.688;2023-04-15T05:35:22;5.60;91.50
55785;DHT22;41709;52.536;5.688;2023-04-15T05:37:47;5.60;91.50
55785;DHT22;41709;52.536;5.688;2023-04-15T05:40:13;5.60;91.40
55785;DHT22;41709;52.536;5.688;2023-04-15T05:42:39;5.70;91.30
55785;DHT22;41709;52.536;5.688;2023-04-15T05:45:05;5.80;91.20
55785;DHT22;41709;52.536;5.688;2023-04-15T05:47:34;5.80;91.20
55785;DHT22;41709;52.536;5.688;2023-04-15T05:50:00;5.80;91.10
55785;DHT22;41709;52.536;5.688;2023-04-15T05:52:25;5.90;91.10
55785;DHT22;41709;52.536;5.688;2023-04-15T05:54:51;5.90;91.10
55785;DHT22;41709;52.536;5.688;2023-04-15T05:57:17;6.00;91.10
55785;DHT22;41709;52.536;5.688;2023-04-15T05:59:42;6.00;91.20
55785;DHT22;41709;52.536;5.688;2023-04-15T06:02:09;6.00;91.30
55785;DHT22;41709;52.536;5.688;2023-04-15T06:04:34;6.10;91.30
55785;DHT22;41709;52.536;5.688;2023-04-15T06:07:01;6.10;91.30
55785;DHT22;41709;52.536;5.688;2023-04-15T06:09:27;6.20;91.30
55785;DHT22;41709;52.536;5.688;2023-04-15T06:11:53;6.30;91.30
55785;DHT22;41709;52.536;5.688;2023-04-15T06:14:19;6.50;91.30
55785;DHT22;41709;52.536;5.688;2023-04-15T06:16:44;6.50;91.20
55785;DHT22;41709;52.536;5.688;2023-04-15T06:19:10;6.60;91.20
55785;DHT22;41709;52.536;5.688;2023-04-15T06:21:36;6.80;91.10
55785;DHT22;41709;52.536;5.688;2023-04-15T06:24:02;6.90;91.00
55785;DHT22;41709;52.536;5.688;2023-04-15T06:26:28;7.00;90.90
55785;DHT22;41709;52.536;5.688;2023-04-15T06:28:54;7.00;90.80
55785;DHT22;41709;52.536;5.688;2023-04-15T06:31:20;7.10;90.70
55785;DHT22;41709;52.536;5.688;2023-04-15T06:33:45;7.20;90.70
55785;DHT22;41709;52.536;5.688;2023-04-15T06:36:11;7.20;90.60
55785;DHT22;41709;52.536;5.688;2023-04-15T06:38:36;7.30;90.50
55785;DHT22;41709;52.536;5.688;2023-04-15T06:41:03;7.30;90.20
55785;DHT22;41709;52.536;5.688;2023-04-15T06:43:29;7.40;90.10
55785;DHT22;41709;52.536;5.688;2023-04-15T06:45:55;7.50;89.80
55785;DHT22;41709;52.536;5.688;2023-04-15T06:48:21;7.50;89.30
55785;DHT22;41709;52.536;5.688;2023-04-15T06:50:47;7.50;89.00
55785;DHT22;41709;52.536;5.688;2023-04-15T06:53:13;7.50;88.70
55785;DHT22;41709;52.536;5.688;2023-04-15T06:55:38;7.50;88.60
55785;DHT22;41709;52.536;5.688;2023-04-15T06:58:04;7.50;88.30
55785;DHT22;41709;52.536;5.688;2023-04-15T07:00:30;7.50;88.20
55785;DHT22;41709;52.536;5.688;2023-04-15T07:02:56;7.60;88.30
55785;DHT22;41709;52.536;5.688;2023-04-15T07:05:22;7.60;88.00
55785;DHT22;41709;52.536;5.688;2023-04-15T07:07:49;7.60;88.00
55785;DHT22;41709;52.536;5.688;2023-04-15T07:10:15;7.60;88.00
55785;DHT22;41709;52.536;5.688;2023-04-15T07:12:41;7.70;87.70
55785;DHT22;41709;52.536;5.688;2023-04-15T07:15:07;7.70;88.00
55785;DHT22;41709;52.536;5.688;2023-04-15T07:17:33;7.70;87.20
55785;DHT22;41709;52.536;5.688;2023-04-15T07:19:58;7.70;87.00
55785;DHT22;41709;52.536;5.688;2023-04-15T07:22:24;7.70;87.00
55785;DHT22;41709;52.536;5.688;2023-04-15T07:24:50;7.60;86.90
55785;DHT22;41709;52.536;5.688;2023-04-15T07:27:16;7.60;87.20
55785;DHT22;41709;52.536;5.688;2023-04-15T07:29:42;7.60;87.20
55785;DHT22;41709;52.536;5.688;2023-04-15T07:32:07;7.50;87.20
55785;DHT22;41709;52.536;5.688;2023-04-15T07:34:35;7.60;87.00
55785;DHT22;41709;52.536;5.688;2023-04-15T07:37:00;7.60;87.10
55785;DHT22;41709;52.536;5.688;2023-04-15T07:39:26;7.60;87.00
55785;DHT22;41709;52.536;5.688;2023-04-15T07:41:51;7.60;87.30
55785;DHT22;41709;52.536;5.688;2023-04-15T07:44:17;7.50;87.40
55785;DHT22;41709;52.536;5.688;2023-04-15T07:46:43;7.50;87.60
55785;DHT22;41709;52.536;5.688;2023-04-15T07:49:08;7.50;88.00
55785;DHT22;41709;52.536;5.688;2023-04-15T07:51:34;7.60;88.40
55785;DHT22;41709;52.536;5.688;2023-04-15T07:53:59;7.60;88.00
55785;DHT22;41709;52.536;5.688;2023-04-15T07:56:25;7.70;88.10
55785;DHT22;41709;52.536;5.688;2023-04-15T07:58:50;7.70;88.10
55785;DHT22;41709;52.536;5.688;2023-04-15T08:01:16;7.70;88.10
55785;DHT22;41709;52.536;5.688;2023-04-15T08:03:42;7.80;88.20
55785;DHT22;41709;52.536;5.688;2023-04-15T08:06:07;7.90;87.90
55785;DHT22;41709;52.536;5.688;2023-04-15T08:08:33;7.90;87.30
55785;DHT22;41709;52.536;5.688;2023-04-15T08:10:59;7.90;87.70
55785;DHT22;41709;52.536;5.688;2023-04-15T08:13:25;7.90;87.70
55785;DHT22;41709;52.536;5.688;2023-04-15T08:18:47;8.00;87.40
55785;DHT22;41709;52.536;5.688;2023-04-15T08:21:13;8.00;87.70
55785;DHT22;41709;52.536;5.688;2023-04-15T08:23:39;8.10;87.30
55785;DHT22;41709;52.536;5.688;2023-04-15T08:26:05;8.20;87.10
55785;DHT22;41709;52.536;5.688;2023-04-15T08:28:30;8.20;86.90
55785;DHT22;41709;52.536;5.688;2023-04-15T08:30:56;8.30;87.10
55785;DHT22;41709;52.536;5.688;2023-04-15T08:33:22;8.40;86.60
55785;DHT22;41709;52.536;5.688;2023-04-15T08:35:48;8.40;86.60
55785;DHT22;41709;52.536;5.688;2023-04-15T08:38:13;8.40;85.60
55785;DHT22;41709;52.536;5.688;2023-04-15T08:40:43;8.40;84.60
55785;DHT22;41709;52.536;5.688;2023-04-15T08:43:12;8.40;85.20
55785;DHT22;41709;52.536;5.688;2023-04-15T08:45:40;8.50;85.10
55785;DHT22;41709;52.536;5.688;2023-04-15T08:48:07;8.50;84.70
55785;DHT22;41709;52.536;5.688;2023-04-15T08:50:34;8.50;84.80
55785;DHT22;41709;52.536;5.688;2023-04-15T08:53:00;8.60;84.50
55785;DHT22;41709;52.536;5.688;2023-04-15T08:55:31;8.60;83.90
55785;DHT22;41709;52.536;5.688;2023-04-15T08:57:59;8.70;84.30
55785;DHT22;41709;52.536;5.688;2023-04-15T09:00:26;8.70;82.80
55785;DHT22;41709;52.536;5.688;2023-04-15T09:02:52;8.70;83.70
55785;DHT22;41709;52.536;5.688;2023-04-15T09:05:17;8.70;83.70
55785;DHT22;41709;52.536;5.688;2023-04-15T09:07:45;8.70;83.40
55785;DHT22;41709;52.536;5.688;2023-04-15T09:10:11;8.80;83.50
55785;DHT22;41709;52.536;5.688;2023-04-15T09:12:37;8.90;83.90
55785;DHT22;41709;52.536;5.688;2023-04-15T09:15:03;9.00;82.30
55785;DHT22;41709;52.536;5.688;2023-04-15T09:17:32;9.00;82.30
55785;DHT22;41709;52.536;5.688;2023-04-15T09:22:33;9.00;82.50
55785;DHT22;41709;52.536;5.688;2023-04-15T09:24:58;9.00;83.40
55785;DHT22;41709;52.536;5.688;2023-04-15T09:27:24;9.20;83.60
55785;DHT22;41709;52.536;5.688;2023-04-15T09:29:50;9.30;81.50
55785;DHT22;41709;52.536;5.688;2023-04-15T09:32:18;9.40;81.80
55785;DHT22;41709;52.536;5.688;2023-04-15T09:34:45;9.50;81.20
55785;DHT22;41709;52.536;5.688;2023-04-15T09:37:11;9.60;80.70
55785;DHT22;41709;52.536;5.688;2023-04-15T09:39:48;9.70;81.30
55785;DHT22;41709;52.536;5.688;2023-04-15T09:42:14;9.80;80.70
55785;DHT22;41709;52.536;5.688;2023-04-15T09:44:41;9.90;78.50
55785;DHT22;41709;52.536;5.688;2023-04-15T09:47:06;10.00;78.60
55785;DHT22;41709;52.536;5.688;2023-04-15T09:49:32;10.00;77.60
55785;DHT22;41709;52.536;5.688;2023-04-15T09:52:02;10.00;77.90
55785;DHT22;41709;52.536;5.688;2023-04-15T09:54:37;10.00;78.30
55785;DHT22;41709;52.536;5.688;2023-04-15T09:57:07;10.00;78.10
55785;DHT22;41709;52.536;5.688;2023-04-15T09:59:34;10.00;77.50
55785;DHT22;41709;52.536;5.688;2023-04-15T10:02:03;10.20;76.70
55785;DHT22;41709;52.536;5.688;2023-04-15T10:04:29;10.10;77.10
55785;DHT22;41709;52.536;5.688;2023-04-15T10:06:55;10.20;77.30
55785;DHT22;41709;52.536;5.688;2023-04-15T10:09:21;10.20;76.90
55785;DHT22;41709;52.536;5.688;2023-04-15T10:11:48;10.20;76.80
55785;DHT22;41709;52.536;5.688;2023-04-15T10:14:14;10.10;77.60
55785;DHT22;41709;52.536;5.688;2023-04-15T10:16:41;10.10;77.90
55785;DHT22;41709;52.536;5.688;2023-04-15T10:19:10;10.20;77.30
55785;DHT22;41709;52.536;5.688;2023-04-15T10:21:36;10.30;76.50
55785;DHT22;41709;52.536;5.688;2023-04-15T10:24:02;10.30;76.40
55785;DHT22;41709;52.536;5.688;2023-04-15T10:26:28;10.40;77.20
55785;DHT22;41709;52.536;5.688;2023-04-15T10:28:54;10.50;76.40
55785;DHT22;41709;52.536;5.688;2023-04-15T10:31:20;10.60;76.20
55785;DHT22;41709;52.536;5.688;2023-04-15T10:33:47;10.60;74.80
55785;DHT22;41709;52.536;5.688;2023-04-15T10:36:14;10.60;74.50
55785;DHT22;41709;52.536;5.688;2023-04-15T10:38:42;10.70;75.30
55785;DHT22;41709;52.536;5.688;2023-04-15T10:41:25;10.70;75.50
55785;DHT22;41709;52.536;5.688;2023-04-15T10:43:59;10.70;75.50
55785;DHT22;41709;52.536;5.688;2023-04-15T10:46:45;10.70;74.50
55785;DHT22;41709;52.536;5.688;2023-04-15T10:49:13;10.60;76.10
55785;DHT22;41709;52.536;5.688;2023-04-15T10:51:40;10.70;77.20
55785;DHT22;41709;52.536;5.688;2023-04-15T10:54:29;10.70;75.90
55785;DHT22;41709;52.536;5.688;2023-04-15T10:59:30;10.80;75.40
55785;DHT22;41709;52.536;5.688;2023-04-15T11:02:00;10.70;76.10
55785;DHT22;41709;52.536;5.688;2023-04-15T11:04:58;10.70;76.40
55785;DHT22;41709;52.536;5.688;2023-04-15T11:12:38;10.60;75.90
55785;DHT22;41709;52.536;5.688;2023-04-15T11:15:39;10.60;76.00
55785;DHT22;41709;52.536;5.688;2023-04-15T11:18:18;10.60;74.40
55785;DHT22;41709;52.536;5.688;2023-04-15T11:21:19;10.60;75.40
55785;DHT22;41709;52.536;5.688;2023-04-15T11:23:39;10.60;74.50
55785;DHT22;41709;52.536;5.688;2023-04-15T11:26:08;10.60;76.10
55785;DHT22;41709;52.536;5.688;2023-04-15T11:28:36;10.70;75.90
55785;DHT22;41709;52.536;5.688;2023-04-15T11:31:06;10.70;75.10
55785;DHT22;41709;52.536;5.688;2023-04-15T11:33:33;10.70;73.60
55785;DHT22;41709;52.536;5.688;2023-04-15T11:35:58;10.80;74.80
55785;DHT22;41709;52.536;5.688;2023-04-15T11:38:24;10.80;74.90
55785;DHT22;41709;52.536;5.688;2023-04-15T11:40:50;10.80;74.30
55785;DHT22;41709;52.536;5.688;2023-04-15T11:43:18;10.80;74.30
55785;DHT22;41709;52.536;5.688;2023-04-15T11:48:20;10.70;74.60
55785;DHT22;41709;52.536;5.688;2023-04-15T11:50:51;10.70;74.80
55785;DHT22;41709;52.536;5.688;2023-04-15T11:53:17;10.70;74.30
55785;DHT22;41709;52.536;5.688;2023-04-15T11:55:47;10.70;74.90
55785;DHT22;41709;52.536;5.688;2023-04-15T11:58:19;10.70;74.50
55785;DHT22;41709;52.536;5.688;2023-04-15T12:00:56;10.80;74.90
55785;DHT22;41709;52.536;5.688;2023-04-15T12:03:34;10.60;74.80
55785;DHT22;41709;52.536;5.688;2023-04-15T12:16:30;10.80;74.70
55785;DHT22;41709;52.536;5.688;2023-04-15T12:18:57;10.70;74.30
55785;DHT22;41709;52.536;5.688;2023-04-15T12:21:25;10.60;73.50
55785;DHT22;41709;52.536;5.688;2023-04-15T12:23:51;10.50;74.50
55785;DHT22;41709;52.536;5.688;2023-04-15T12:26:17;10.50;75.40
55785;DHT22;41709;52.536;5.688;2023-04-15T12:28:53;10.60;75.70
55785;DHT22;41709;52.536;5.688;2023-04-15T12:31:19;10.60;75.20
55785;DHT22;41709;52.536;5.688;2023-04-15T12:33:47;10.60;75.90
55785;DHT22;41709;52.536;5.688;2023-04-15T12:36:14;10.50;75.50
55785;DHT22;41709;52.536;5.688;2023-04-15T12:38:39;10.50;75.70
55785;DHT22;41709;52.536;5.688;2023-04-15T12:41:05;10.50;75.90
55785;DHT22;41709;52.536;5.688;2023-04-15T12:43:30;10.50;76.20
55785;DHT22;41709;52.536;5.688;2023-04-15T12:45:56;10.40;76.20
55785;DHT22;41709;52.536;5.688;2023-04-15T12:48:21;10.30;76.10
55785;DHT22;41709;52.536;5.688;2023-04-15T12:50:47;10.30;76.30
55785;DHT22;41709;52.536;5.688;2023-04-15T12:53:12;10.20;75.80
55785;DHT22;41709;52.536;5.688;2023-04-15T12:55:38;10.20;76.90
55785;DHT22;41709;52.536;5.688;2023-04-15T12:58:04;10.20;77.30
55785;DHT22;41709;52.536;5.688;2023-04-15T13:00:29;10.20;77.50
55785;DHT22;41709;52.536;5.688;2023-04-15T13:02:55;10.20;77.70
55785;DHT22;41709;52.536;5.688;2023-04-15T13:05:20;10.20;78.00
55785;DHT22;41709;52.536;5.688;2023-04-15T13:07:46;10.20;78.40
55785;DHT22;41709;52.536;5.688;2023-04-15T13:10:11;10.20;78.70
55785;DHT22;41709;52.536;5.688;2023-04-15T13:12:37;10.20;79.50
55785;DHT22;41709;52.536;5.688;2023-04-15T13:15:03;10.30;79.20
55785;DHT22;41709;52.536;5.688;2023-04-15T13:17:29;10.20;79.30
55785;DHT22;41709;52.536;5.688;2023-04-15T13:19:55;10.10;78.60
55785;DHT22;41709;52.536;5.688;2023-04-15T13:22:20;10.10;78.50
55785;DHT22;41709;52.536;5.688;2023-04-15T13:24:46;10.00;78.60
55785;DHT22;41709;52.536;5.688;2023-04-15T13:27:11;10.00;79.20
55785;DHT22;41709;52.536;5.688;2023-04-15T13:29:37;10.00;78.20
55785;DHT22;41709;52.536;5.688;2023-04-15T13:32:04;10.00;78.30
55785;DHT22;41709;52.536;5.688;2023-04-15T13:34:30;10.00;78.20
55785;DHT22;41709;52.536;5.688;2023-04-15T13:36:56;10.00;77.80
55785;DHT22;41709;52.536;5.688;2023-04-15T13:39:21;9.90;77.50
55785;DHT22;41709;52.536;5.688;2023-04-15T13:41:47;9.80;77.90
55785;DHT22;41709;52.536;5.688;2023-04-15T13:44:13;9.80;79.10
55785;DHT22;41709;52.536;5.688;2023-04-15T13:46:39;9.80;78.70
55785;DHT22;41709;52.536;5.688;2023-04-15T13:49:06;9.80;79.40
55785;DHT22;41709;52.536;5.688;2023-04-15T13:51:32;9.80;80.10
55785;DHT22;41709;52.536;5.688;2023-04-15T13:54:00;9.80;79.80
55785;DHT22;41709;52.536;5.688;2023-04-15T13:56:25;9.80;80.10
55785;DHT22;41709;52.536;5.688;2023-04-15T13:58:51;9.70;81.20
55785;DHT22;41709;52.536;5.688;2023-04-15T14:01:17;9.70;81.30
55785;DHT22;41709;52.536;5.688;2023-04-15T14:03:42;9.70;80.30
55785;DHT22;41709;52.536;5.688;2023-04-15T14:06:08;9.70;80.60
55785;DHT22;41709;52.536;5.688;2023-04-15T14:08:33;9.70;79.50
55785;DHT22;41709;52.536;5.688;2023-04-15T14:10:59;9.70;79.10
55785;DHT22;41709;52.536;5.688;2023-04-15T14:13:25;9.60;78.50
55785;DHT22;41709;52.536;5.688;2023-04-15T14:15:50;9.60;78.70
55785;DHT22;41709;52.536;5.688;2023-04-15T14:18:16;9.60;79.20
55785;DHT22;41709;52.536;5.688;2023-04-15T14:20:41;9.60;79.60
55785;DHT22;41709;52.536;5.688;2023-04-15T14:23:07;9.60;79.80
55785;DHT22;41709;52.536;5.688;2023-04-15T14:25:32;9.50;80.30
55785;DHT22;41709;52.536;5.688;2023-04-15T14:27:58;9.50;80.70
55785;DHT22;41709;52.536;5.688;2023-04-15T14:30:23;9.50;80.90
55785;DHT22;41709;52.536;5.688;2023-04-15T14:32:49;9.50;81.10
55785;DHT22;41709;52.536;5.688;2023-04-15T14:35:15;9.60;80.80
55785;DHT22;41709;52.536;5.688;2023-04-15T14:37:40;9.40;80.30
55785;DHT22;41709;52.536;5.688;2023-04-15T14:40:06;9.40;81.10
55785;DHT22;41709;52.536;5.688;2023-04-15T14:42:32;9.40;81.10
55785;DHT22;41709;52.536;5.688;2023-04-15T14:44:57;9.30;81.40
55785;DHT22;41709;52.536;5.688;2023-04-15T14:47:23;9.30;81.30
55785;DHT22;41709;52.536;5.688;2023-04-15T14:49:49;9.20;81.50
55785;DHT22;41709;52.536;5.688;2023-04-15T14:52:15;9.20;81.70
55785;DHT22;41709;52.536;5.688;2023-04-15T14:54:40;9.10;81.90
55785;DHT22;41709;52.536;5.688;2023-04-15T14:57:06;9.10;82.50
55785;DHT22;41709;52.536;5.688;2023-04-15T14:59:33;9.10;82.80
55785;DHT22;41709;52.536;5.688;2023-04-15T15:01:58;9.10;83.00
55785;DHT22;41709;52.536;5.688;2023-04-15T15:04:24;9.10;82.80
55785;DHT22;41709;52.536;5.688;2023-04-15T15:06:49;9.00;83.20
55785;DHT22;41709;52.536;5.688;2023-04-15T15:09:15;8.90;83.30
55785;DHT22;41709;52.536;5.688;2023-04-15T15:11:40;8.90;83.40
55785;DHT22;41709;52.536;5.688;2023-04-15T15:14:06;8.90;83.50
55785;DHT22;41709;52.536;5.688;2023-04-15T15:16:31;8.90;83.70
55785;DHT22;41709;52.536;5.688;2023-04-15T15:18:57;8.90;83.90
55785;DHT22;41709;52.536;5.688;2023-04-15T15:21:22;8.90;84.00
55785;DHT22;41709;52.536;5.688;2023-04-15T15:23:48;8.90;84.20
55785;DHT22;41709;52.536;5.688;2023-04-15T15:26:14;8.90;84.50
55785;DHT22;41709;52.536;5.688;2023-04-15T15:28:40;8.80;84.10
55785;DHT22;41709;52.536;5.688;2023-04-15T15:31:06;8.80;84.40
55785;DHT22;41709;52.536;5.688;2023-04-15T15:33:31;8.80;85.10
55785;DHT22;41709;52.536;5.688;2023-04-15T15:35:57;8.70;85.50
55785;DHT22;41709;52.536;5.688;2023-04-15T15:38:23;8.70;85.50
55785;DHT22;41709;52.536;5.688;2023-04-15T15:40:49;8.70;85.60
55785;DHT22;41709;52.536;5.688;2023-04-15T15:43:14;8.70;85.70
55785;DHT22;41709;52.536;5.688;2023-04-15T15:45:40;8.70;85.50
55785;DHT22;41709;52.536;5.688;2023-04-15T15:48:05;8.70;85.50
55785;DHT22;41709;52.536;5.688;2023-04-15T15:50:32;8.70;84.90
55785;DHT22;41709;52.536;5.688;2023-04-15T15:52:58;8.70;84.10
55785;DHT22;41709;52.536;5.688;2023-04-15T15:55:23;8.70;84.70
55785;DHT22;41709;52.536;5.688;2023-04-15T15:57:51;8.60;84.90
55785;DHT22;41709;52.536;5.688;2023-04-15T16:00:17;8.70;84.90
55785;DHT22;41709;52.536;5.688;2023-04-15T16:02:43;8.70;84.80
55785;DHT22;41709;52.536;5.688;2023-04-15T16:05:09;8.70;85.10